Sun Maiden — CZ4548 — position and weather

sailwx.info

Track history (hours):
 
Tides and Currents Weather Stations Pressure Air Temp Water Temp Dewpoint Dewpoint Depression Visibility Wind Speed Wind Dir Waves Ship Positions

Sun Maiden

Last reported at 2018-Feb-21 07:27 UTC. Time now 2018-Feb-21 07:42 UTC.
Position N 49°35' W 124°26'.

Length 30 m; draft 2.8 m.

Type: Fishing. MMSI: 316003459.

Date/timePositionNaut miles runAvg speedWind from/ knotsBaromVisibWave heightAir tempDewpointWater temp
2018-Feb-21 07:27N 49°35' W 124°26'35 8.5
2018-Feb-21 03:16N 49°12' W 123°44'11 8.5
2018-Feb-21 02:00N 49°05' W 123°32'6 8.3
2018-Feb-21 01:20N 49°01' W 123°25'3 8.3
2018-Feb-21 00:58N 48°59' W 123°23'5 8.2
2018-Feb-21 00:23N 48°55' W 123°18'3 9.2
2018-Feb-21 00:00N 48°52' W 123°19'4 7.2
2018-Feb-20 23:30N 48°48' W 123°21'4 8.2
2018-Feb-20 23:00N 48°45' W 123°23'4 8.8
2018-Feb-20 22:30N 48°42' W 123°29'4 7.8
2018-Feb-20 22:01N 48°38' W 123°30'  
Track history (hours):
 
Tides and Currents Weather Stations Pressure Air Temp Water Temp Dewpoint Dewpoint Depression Visibility Wind Speed Wind Dir Waves Ship Positions

Sun Maiden

Last reported at 2018-Feb-21 07:27 UTC. Time now 2018-Feb-21 07:42 UTC.
Position N 49°35' W 124°26'.

Length 30 m; draft 2.8 m.

Type: Fishing. MMSI: 316003459.

Date/timePositionNaut miles runAvg speedWind from/ knotsBaromVisibWave heightAir tempDewpointWater temp
2018-Feb-21 07:27N 49°35' W 124°26'35 8.5
2018-Feb-21 03:16N 49°12' W 123°44'11 8.5
2018-Feb-21 02:00N 49°05' W 123°32'6 8.3
2018-Feb-21 01:20N 49°01' W 123°25'3 8.3
2018-Feb-21 00:58N 48°59' W 123°23'5 8.2
2018-Feb-21 00:23N 48°55' W 123°18'3 9.2
2018-Feb-21 00:00N 48°52' W 123°19'4 7.2
2018-Feb-20 23:30N 48°48' W 123°21'4 8.2
2018-Feb-20 23:00N 48°45' W 123°23'4 8.8
2018-Feb-20 22:30N 48°42' W 123°29'4 7.8
2018-Feb-20 22:01N 48°38' W 123°30'  

Dump ship's entire track history